createdAt,value
2023-06-23T00:00:24.146Z,101666.50
2023-06-23T00:02:51.368Z,101660.31
2023-06-23T00:05:18.671Z,101659.47
2023-06-23T00:07:45.732Z,101659.66
2023-06-23T00:10:12.853Z,101647.75
2023-06-23T00:12:44.014Z,101662.53
2023-06-23T00:15:13.006Z,101656.25
2023-06-23T00:17:42.097Z,101653.78
2023-06-23T00:20:14.538Z,101650.31
2023-06-23T00:22:42.630Z,101653.84
2023-06-23T00:25:11.199Z,101651.38
2023-06-23T00:27:43.519Z,101654.16
2023-06-23T00:30:12.429Z,101646.16
2023-06-23T00:32:40.825Z,101647.22
2023-06-23T00:35:12.085Z,101650.81
2023-06-23T00:37:39.204Z,101648.28
2023-06-23T00:40:12.124Z,101644.84
2023-06-23T00:42:50.319Z,101646.66
2023-06-23T00:45:17.366Z,101651.25
2023-06-23T00:47:46.264Z,101646.94
2023-06-23T00:50:20.680Z,101646.09
2023-06-23T00:52:51.931Z,101642.56
2023-06-23T00:55:23.208Z,101640.84
2023-06-23T00:57:51.718Z,101649.72
2023-06-23T01:00:20.054Z,101645.44
2023-06-23T01:02:50.872Z,101644.56
2023-06-23T01:05:21.850Z,101640.84
2023-06-23T01:08:28.113Z,101642.97
2023-06-23T01:10:58.897Z,101649.28
2023-06-23T01:13:55.175Z,101644.88
2023-06-23T01:16:32.937Z,101651.28
2023-06-23T01:19:30.603Z,101643.28
2023-06-23T01:22:18.604Z,101642.47
2023-06-23T01:24:48.642Z,101641.63
2023-06-23T01:27:35.004Z,101635.53
2023-06-23T01:30:07.654Z,101635.63
2023-06-23T01:32:52.531Z,101636.56
2023-06-23T01:35:25.581Z,101640.09
2023-06-23T01:37:59.244Z,101634.88
2023-06-23T01:40:27.386Z,101637.59
2023-06-23T01:42:58.700Z,101639.44
2023-06-23T01:45:30.503Z,101638.59
2023-06-23T01:48:02.764Z,101632.50
2023-06-23T01:50:32.961Z,101636.84
2023-06-23T01:53:02.463Z,101632.50
2023-06-23T01:55:32.277Z,101634.38
2023-06-23T01:58:02.199Z,101627.25
2023-06-23T02:00:30.115Z,101624.69
2023-06-23T02:02:59.088Z,101629.03
2023-06-23T02:05:28.654Z,101629.16
2023-06-23T02:07:58.739Z,101629.16
2023-06-23T02:10:29.107Z,101619.44
2023-06-23T02:12:58.259Z,101616.88
2023-06-23T02:15:28.121Z,101619.53
2023-06-23T02:17:57.472Z,101625.81
2023-06-23T02:20:25.159Z,101619.63
2023-06-23T02:22:54.278Z,101622.41
2023-06-23T02:25:23.546Z,101623.25
2023-06-23T02:27:51.869Z,101615.34
2023-06-23T02:30:19.713Z,101610.84
2023-06-23T02:32:50.004Z,101604.66
2023-06-23T02:35:17.711Z,101603.84
2023-06-23T02:37:54.409Z,101601.53
2023-06-23T02:40:24.779Z,101608.31
2023-06-23T02:43:01.373Z,101608.31
2023-06-23T02:45:35.247Z,101611.06
2023-06-23T02:48:04.643Z,101610.22
2023-06-23T02:50:35.774Z,101607.56
2023-06-23T02:53:10.361Z,101600.50
2023-06-23T02:55:46.197Z,101608.50
2023-06-23T02:58:17.171Z,101600.56
2023-06-23T03:00:44.579Z,101593.53
2023-06-23T03:03:16.372Z,101593.34
2023-06-23T03:05:44.787Z,101599.75
2023-06-23T03:08:12.337Z,101598.75
2023-06-23T03:10:39.358Z,101605.06
2023-06-23T03:13:06.396Z,101605.06
2023-06-23T03:15:34.096Z,101608.56
2023-06-23T03:18:26.397Z,101608.69
2023-06-23T03:20:56.577Z,101606.97
2023-06-23T03:23:26.897Z,101599.06
2023-06-23T03:25:55.250Z,101596.41
2023-06-23T03:28:28.952Z,101595.66
2023-06-23T03:31:04.529Z,101589.44
2023-06-23T03:33:35.224Z,101580.59
2023-06-23T03:36:16.572Z,101572.69
2023-06-23T03:38:58.759Z,101564.69
2023-06-23T03:41:29.777Z,101559.44
2023-06-23T03:43:59.535Z,101559.34
2023-06-23T03:46:32.846Z,101577.34
2023-06-23T03:49:03.287Z,101589.66
2023-06-23T03:51:34.094Z,101584.31
2023-06-23T03:54:03.640Z,101592.19
2023-06-23T03:56:34.005Z,101592.44
2023-06-23T03:59:03.734Z,101600.31
2023-06-23T04:01:34.492Z,101586.13
2023-06-23T04:04:04.297Z,101579.16
2023-06-23T04:06:32.707Z,101580.13
2023-06-23T04:09:02.966Z,101585.47
2023-06-23T04:11:31.933Z,101590.88
2023-06-23T04:14:00.770Z,101592.69
2023-06-23T04:16:28.441Z,101583.88
2023-06-23T04:18:57.460Z,101563.09
2023-06-23T04:21:25.588Z,101585.66
2023-06-23T04:23:54.801Z,101597.09
2023-06-23T04:26:21.788Z,101588.34
2023-06-23T04:28:53.893Z,101574.63
2023-06-23T04:31:23.112Z,101572.91
2023-06-23T04:33:50.233Z,101574.44
2023-06-23T04:36:19.709Z,101575.06
2023-06-23T04:39:00.862Z,101575.94
2023-06-23T04:41:28.731Z,101577.47
2023-06-23T04:44:00.149Z,101574.13
2023-06-23T04:46:31.215Z,101578.53
2023-06-23T04:49:03.844Z,101575.06
2023-06-23T04:51:37.015Z,101585.56
2023-06-23T04:54:12.251Z,101591.75
2023-06-23T04:56:41.938Z,101586.41
2023-06-23T04:59:12.279Z,101581.06
2023-06-23T05:01:40.059Z,101574.81
2023-06-23T05:04:09.387Z,101568.50
2023-06-23T05:06:41.119Z,101564.50
2023-06-23T05:09:10.121Z,101574.94
2023-06-23T05:11:37.686Z,101575.53
2023-06-23T05:14:08.304Z,101577.03
2023-06-23T05:16:37.493Z,101576.84
2023-06-23T05:19:10.134Z,101565.19
2023-06-23T05:21:37.987Z,101572.91
2023-06-23T05:24:10.450Z,101567.22
2023-06-23T05:26:40.487Z,101581.00
2023-06-23T05:29:09.813Z,101585.97
2023-06-23T05:31:42.444Z,101585.75
2023-06-23T05:34:13.223Z,101583.16
2023-06-23T05:36:41.635Z,101583.94
2023-06-23T05:39:11.690Z,101576.81
2023-06-23T05:41:38.846Z,101582.22
2023-06-23T05:44:06.035Z,101577.63
2023-06-23T05:46:36.567Z,101585.56
2023-06-23T05:49:18.582Z,101589.94
2023-06-23T05:51:46.916Z,101584.53
2023-06-23T05:54:16.256Z,101591.69
2023-06-23T05:56:52.073Z,101581.75
2023-06-23T05:59:43.888Z,101583.47
2023-06-23T06:02:20.053Z,101585.22
2023-06-23T06:04:52.834Z,101582.31
2023-06-23T06:07:21.785Z,101579.88
2023-06-23T06:09:50.908Z,101589.03
2023-06-23T06:12:19.026Z,101601.47
2023-06-23T06:14:47.996Z,101592.59
2023-06-23T06:17:17.696Z,101601.59
2023-06-23T06:19:46.997Z,101601.59
2023-06-23T06:22:17.708Z,101603.28
2023-06-23T06:24:47.483Z,101597.09
2023-06-23T06:27:16.529Z,101596.13
2023-06-23T06:29:45.167Z,101594.34
2023-06-23T06:32:14.402Z,101598.63
2023-06-23T06:34:44.919Z,101600.50
2023-06-23T06:37:13.252Z,101607.06
2023-06-23T06:39:42.829Z,101608.88
2023-06-23T06:42:10.371Z,101606.78
2023-06-23T06:44:37.858Z,101615.56
2023-06-23T06:47:08.057Z,101615.56
2023-06-23T06:49:36.118Z,101614.78
2023-06-23T06:52:04.631Z,101618.31
2023-06-23T06:54:31.775Z,101612.09
2023-06-23T06:56:59.726Z,101619.38
2023-06-23T06:59:26.966Z,101622.03
2023-06-23T07:01:54.807Z,101620.41
2023-06-23T07:04:22.956Z,101623.19
2023-06-23T07:06:54.852Z,101623.28
2023-06-23T07:09:22.310Z,101621.47
2023-06-23T07:11:50.586Z,101620.59
2023-06-23T07:14:18.075Z,101624.22
2023-06-23T07:16:45.089Z,101634.06
2023-06-23T07:19:12.533Z,101636.72
2023-06-23T07:21:39.644Z,101634.13
2023-06-23T07:24:07.210Z,101626.13
2023-06-23T07:26:35.134Z,101625.25
2023-06-23T07:29:02.219Z,101617.38
2023-06-23T07:31:29.574Z,101619.09
2023-06-23T07:33:57.885Z,101615.56
2023-06-23T07:36:25.053Z,101619.00
2023-06-23T07:38:52.147Z,101613.66
2023-06-23T07:41:19.188Z,101604.78
2023-06-23T07:43:46.449Z,101612.91
2023-06-23T07:46:13.855Z,101607.56
2023-06-23T07:48:41.366Z,101615.56
2023-06-23T07:51:08.814Z,101616.50
2023-06-23T07:53:36.213Z,101606.69
2023-06-23T07:56:03.355Z,101616.50
2023-06-23T07:58:30.411Z,101609.25
2023-06-23T08:00:57.585Z,101619.19
2023-06-23T08:03:24.956Z,101616.50
2023-06-23T08:05:52.189Z,101618.44
2023-06-23T08:08:19.352Z,101623.75
2023-06-23T08:10:46.675Z,101620.97
2023-06-23T08:13:13.979Z,101625.50
2023-06-23T08:15:42.435Z,101623.56
2023-06-23T08:18:10.063Z,101625.50
2023-06-23T08:20:37.257Z,101626.44
2023-06-23T08:23:04.308Z,101629.09
2023-06-23T08:25:31.877Z,101633.50
2023-06-23T08:27:59.244Z,101631.66
2023-06-23T08:30:28.676Z,101640.63
2023-06-23T08:32:56.112Z,101642.44
2023-06-23T08:35:24.099Z,101633.56
2023-06-23T08:37:51.402Z,101633.50
2023-06-23T08:40:18.965Z,101636.16
2023-06-23T08:42:46.882Z,101623.75
2023-06-23T08:45:17.263Z,101629.97
2023-06-23T08:47:53.293Z,101625.56
2023-06-23T08:50:22.484Z,101630.81
2023-06-23T08:52:49.926Z,101622.03
2023-06-23T08:55:17.064Z,101628.22
2023-06-23T08:57:44.253Z,101618.63
2023-06-23T09:00:12.122Z,101622.03
2023-06-23T09:02:39.532Z,101625.56
2023-06-23T09:05:06.794Z,101628.22
2023-06-23T09:07:34.117Z,101629.84
2023-06-23T09:10:01.970Z,101624.69
2023-06-23T09:12:29.258Z,101627.56
2023-06-23T09:15:00.175Z,101616.06
2023-06-23T09:17:28.867Z,101614.34
2023-06-23T09:19:56.753Z,101611.78
2023-06-23T09:22:25.266Z,101611.78
2023-06-23T09:24:52.336Z,101606.44
2023-06-23T09:27:19.604Z,101591.88
2023-06-23T09:30:01.077Z,101596.81
2023-06-23T09:32:31.222Z,101600.31
2023-06-23T09:34:58.672Z,101602.03
2023-06-23T09:37:26.989Z,101605.56
2023-06-23T09:39:57.409Z,101605.75
2023-06-23T09:42:26.580Z,101597.66
2023-06-23T09:44:53.815Z,101591.50
2023-06-23T09:47:21.416Z,101581.66
2023-06-23T09:49:50.386Z,101587.09
2023-06-23T09:52:28.115Z,101590.63
2023-06-23T09:54:56.869Z,101586.03
2023-06-23T09:57:25.013Z,101585.94
2023-06-23T09:59:54.192Z,101598.44
2023-06-23T10:02:28.216Z,101571.41
2023-06-23T10:05:08.220Z,101590.31
2023-06-23T10:07:35.777Z,101591.06
2023-06-23T10:10:21.556Z,101581.47
2023-06-23T10:12:53.874Z,101589.28
2023-06-23T10:15:21.570Z,101585.75
2023-06-23T10:17:49.511Z,101591.94
2023-06-23T10:20:17.215Z,101579.53
2023-06-23T10:22:46.202Z,101573.38
2023-06-23T10:25:13.539Z,101570.59
2023-06-23T10:27:43.465Z,101568.69
2023-06-23T10:30:16.472Z,101567.00
2023-06-23T10:32:49.346Z,101567.94
2023-06-23T10:35:21.554Z,101561.66
2023-06-23T10:37:50.496Z,101554.59
2023-06-23T10:40:23.824Z,101561.53
2023-06-23T10:42:52.271Z,101551.84
2023-06-23T10:45:19.635Z,101554.41
2023-06-23T10:47:49.708Z,101550.69
2023-06-23T10:50:17.245Z,101548.50
2023-06-23T10:52:44.488Z,101540.25
2023-06-23T10:55:38.274Z,101527.78
2023-06-23T10:58:18.051Z,101533.78
2023-06-23T11:00:55.250Z,101529.94
2023-06-23T11:03:37.515Z,101528.88
2023-06-23T11:06:09.611Z,101528.69
2023-06-23T11:08:41.883Z,101518.03
2023-06-23T11:11:19.534Z,101520.59
2023-06-23T11:13:48.537Z,101514.09
2023-06-23T11:16:33.045Z,101506.63
2023-06-23T11:19:02.444Z,101499.69
2023-06-23T11:21:39.121Z,101503.09
2023-06-23T11:24:16.238Z,101491.69
2023-06-23T11:26:56.909Z,101502.28
2023-06-23T11:29:24.735Z,101495.97
2023-06-23T11:32:08.305Z,101505.69
2023-06-23T11:35:08.677Z,101504.75
2023-06-23T11:37:36.279Z,101499.16
2023-06-23T11:40:05.061Z,101508.94
2023-06-23T11:42:32.413Z,101497.31
2023-06-23T11:44:59.885Z,101499.97
2023-06-23T11:47:31.117Z,101499.78
2023-06-23T11:50:03.950Z,101488.13
2023-06-23T11:52:31.588Z,101479.91
2023-06-23T11:54:58.673Z,101481.63
2023-06-23T11:57:26.178Z,101482.69
2023-06-23T11:59:54.405Z,101483.53
2023-06-23T12:02:22.237Z,101477.38
2023-06-23T12:04:52.762Z,101470.09
2023-06-23T12:07:21.145Z,101466.38
2023-06-23T12:09:48.295Z,101469.91
2023-06-23T12:12:17.527Z,101466.38
2023-06-23T12:14:45.334Z,101460.28
2023-06-23T12:17:14.254Z,101461.97
2023-06-23T12:19:43.239Z,101456.53
2023-06-23T12:22:19.734Z,101455.56
2023-06-23T12:24:47.870Z,101463.28
2023-06-23T12:27:15.233Z,101443.81
2023-06-23T12:29:42.453Z,101444.69
2023-06-23T12:32:10.538Z,101448.09
2023-06-23T12:34:43.942Z,101432.59
2023-06-23T12:37:18.988Z,101437.34
2023-06-23T12:39:53.940Z,101434.00
2023-06-23T12:42:22.009Z,101443.41
2023-06-23T12:44:50.562Z,101442.56
2023-06-23T12:47:19.675Z,101431.25
2023-06-23T12:49:46.834Z,101440.88
2023-06-23T12:52:13.962Z,101432.72
2023-06-23T12:54:40.989Z,101440.00
2023-06-23T12:57:10.926Z,101431.00
2023-06-23T12:59:37.973Z,101420.78
2023-06-23T13:02:05.353Z,101441.47
2023-06-23T13:04:32.437Z,101441.47
2023-06-23T13:06:59.725Z,101431.66
2023-06-23T13:09:26.847Z,101435.94
2023-06-23T13:11:54.106Z,101435.00
2023-06-23T13:14:21.614Z,101434.13
2023-06-23T13:16:49.330Z,101436.16
2023-06-23T13:19:17.250Z,101436.16
2023-06-23T13:21:47.547Z,101429.84
2023-06-23T13:24:14.995Z,101438.59
2023-06-23T13:26:45.000Z,101419.91
2023-06-23T13:29:12.622Z,101422.72
2023-06-23T13:31:40.054Z,101433.38
2023-06-23T13:34:07.243Z,101430.59
2023-06-23T13:36:34.517Z,101415.09
2023-06-23T13:39:02.289Z,101425.38
2023-06-23T13:41:29.502Z,101423.66
2023-06-23T13:43:56.679Z,101425.66
2023-06-23T13:46:24.081Z,101434.44
2023-06-23T13:48:51.952Z,101429.13
2023-06-23T13:51:19.218Z,101428.13
2023-06-23T13:53:46.421Z,101425.47
2023-06-23T13:56:14.382Z,101413.91
2023-06-23T13:58:41.694Z,101435.41
2023-06-23T14:01:08.944Z,101432.84
2023-06-23T14:03:37.417Z,101435.53
2023-06-23T14:06:05.722Z,101433.81
2023-06-23T14:08:35.805Z,101447.16
2023-06-23T14:11:03.438Z,101443.75
2023-06-23T14:13:30.648Z,101431.66
2023-06-23T14:15:58.124Z,101438.28
2023-06-23T14:18:25.732Z,101436.34
2023-06-23T14:20:53.009Z,101439.03
2023-06-23T14:23:20.219Z,101430.81
2023-06-23T14:25:47.362Z,101426.31
2023-06-23T14:28:16.147Z,101417.38
2023-06-23T14:30:43.381Z,101416.28
2023-06-23T14:33:10.949Z,101414.50
2023-06-23T14:35:38.330Z,101405.63
2023-06-23T14:38:07.343Z,101407.31
2023-06-23T14:40:34.634Z,101408.16
2023-06-23T14:43:02.354Z,101399.84
2023-06-23T14:45:36.498Z,101416.28
2023-06-23T14:48:04.404Z,101418.09
2023-06-23T14:50:31.633Z,101409.22
2023-06-23T14:52:59.755Z,101410.84
2023-06-23T14:55:27.213Z,101403.69
2023-06-23T14:57:54.655Z,101404.63
2023-06-23T15:00:22.540Z,101407.22
2023-06-23T15:02:49.934Z,101403.69
2023-06-23T15:05:17.519Z,101401.97
2023-06-23T15:07:44.838Z,101389.38
2023-06-23T15:10:12.082Z,101392.88
2023-06-23T15:12:39.131Z,101390.34
2023-06-23T15:15:06.718Z,101396.41
2023-06-23T15:17:34.124Z,101396.41
2023-06-23T15:20:01.366Z,101394.59
2023-06-23T15:22:28.808Z,101398.34
2023-06-23T15:24:55.883Z,101397.41
2023-06-23T15:27:23.193Z,101401.75
2023-06-23T15:29:50.384Z,101412.44
2023-06-23T15:32:17.538Z,101424.94
2023-06-23T15:34:44.876Z,101432.94
2023-06-23T15:37:12.359Z,101431.13
2023-06-23T15:39:42.712Z,101439.16
2023-06-23T15:42:12.952Z,101430.38
2023-06-23T15:44:43.251Z,101433.06
2023-06-23T15:47:10.736Z,101440.66
2023-06-23T15:49:38.312Z,101440.75
2023-06-23T15:52:07.088Z,101434.88
2023-06-23T15:54:36.122Z,101431.53
2023-06-23T15:57:03.761Z,101432.53
2023-06-23T15:59:30.830Z,101427.25
2023-06-23T16:01:57.974Z,101426.31
2023-06-23T16:04:25.577Z,101431.44
2023-06-23T16:06:52.770Z,101437.53
2023-06-23T16:09:19.946Z,101438.47
2023-06-23T16:11:46.939Z,101430.59
2023-06-23T16:14:13.991Z,101433.16
2023-06-23T16:16:42.614Z,101428.78
2023-06-23T16:19:10.047Z,101430.47
2023-06-23T16:21:37.371Z,101429.19
2023-06-23T16:24:04.881Z,101418.53
2023-06-23T16:26:32.022Z,101424.72
2023-06-23T16:28:59.694Z,101414.78
2023-06-23T16:31:26.974Z,101413.84
2023-06-23T16:33:56.692Z,101416.38
2023-06-23T16:36:25.916Z,101412.66
2023-06-23T16:38:52.937Z,101416.09
2023-06-23T16:41:20.292Z,101412.44
2023-06-23T16:43:47.479Z,101412.44
2023-06-23T16:46:14.769Z,101413.31
2023-06-23T16:48:41.967Z,101416.09
2023-06-23T16:51:09.307Z,101410.75
2023-06-23T16:53:36.721Z,101396.63
2023-06-23T16:56:06.860Z,101402.94
2023-06-23T16:58:34.982Z,101396.88
2023-06-23T17:01:02.592Z,101395.88
2023-06-23T17:03:29.868Z,101398.56
2023-06-23T17:05:57.046Z,101393.13
2023-06-23T17:08:24.271Z,101389.59
2023-06-23T17:10:51.452Z,101383.38
2023-06-23T17:13:18.498Z,101377.84
2023-06-23T17:15:45.894Z,101380.06
2023-06-23T17:18:12.915Z,101373.25
2023-06-23T17:20:39.916Z,101377.41
2023-06-23T17:23:07.271Z,101375.72
2023-06-23T17:25:34.539Z,101369.06
2023-06-23T17:28:02.063Z,101366.59
2023-06-23T17:30:29.227Z,101356.25
2023-06-23T17:32:56.547Z,101359.03
2023-06-23T17:35:23.691Z,101355.31
2023-06-23T17:37:50.753Z,101340.44
2023-06-23T17:40:21.612Z,101356.78
2023-06-23T17:42:48.839Z,101345.50
2023-06-23T17:45:16.004Z,101346.66
2023-06-23T17:47:43.443Z,101341.50
2023-06-23T17:50:11.636Z,101350.56
2023-06-23T17:52:38.869Z,101348.78
2023-06-23T17:55:06.680Z,101350.50
2023-06-23T17:57:33.771Z,101352.38
2023-06-23T18:00:01.166Z,101347.50
2023-06-23T18:02:29.229Z,101350.06
2023-06-23T18:04:56.453Z,101340.69
2023-06-23T18:07:24.121Z,101319.53
2023-06-23T18:09:51.486Z,101331.38
2023-06-23T18:12:18.837Z,101331.28
2023-06-23T18:14:46.122Z,101331.19
2023-06-23T18:17:13.775Z,101334.69
2023-06-23T18:19:42.157Z,101325.72
2023-06-23T18:22:09.316Z,101329.13
2023-06-23T18:24:36.488Z,101325.50
2023-06-23T18:27:04.184Z,101327.09
2023-06-23T18:29:31.371Z,101328.06
2023-06-23T18:32:08.297Z,101324.97
2023-06-23T18:34:36.519Z,101324.84
2023-06-23T18:37:03.748Z,101318.34
2023-06-23T18:39:31.055Z,101336.72
2023-06-23T18:41:58.943Z,101328.69
2023-06-23T18:44:26.099Z,101320.56
2023-06-23T18:46:53.339Z,101329.34
2023-06-23T18:49:20.583Z,101321.44
2023-06-23T18:51:48.119Z,101319.75
2023-06-23T18:54:15.244Z,101323.75
2023-06-23T18:56:42.503Z,101322.06
2023-06-23T18:59:09.834Z,101306.91
2023-06-23T19:01:37.200Z,101318.41
2023-06-23T19:04:04.673Z,101321.00
2023-06-23T19:06:31.862Z,101321.94
2023-06-23T19:09:04.126Z,101320.88
2023-06-23T19:11:32.553Z,101311.91
2023-06-23T19:14:03.147Z,101310.84
2023-06-23T19:16:31.330Z,101298.22
2023-06-23T19:18:59.268Z,101301.88
2023-06-23T19:21:27.019Z,101298.34
2023-06-23T19:23:55.517Z,101312.22
2023-06-23T19:26:22.779Z,101311.13
2023-06-23T19:28:50.356Z,101312.63
2023-06-23T19:31:17.537Z,101296.06
2023-06-23T19:33:44.783Z,101295.50
2023-06-23T19:36:12.314Z,101286.44
2023-06-23T19:38:39.742Z,101290.72
2023-06-23T19:41:07.130Z,101293.25
2023-06-23T19:43:34.410Z,101293.25
2023-06-23T19:46:03.506Z,101290.38
2023-06-23T19:48:30.901Z,101292.59
2023-06-23T19:50:58.096Z,101291.31
2023-06-23T19:53:25.403Z,101295.34
2023-06-23T19:55:55.730Z,101290.25
2023-06-23T19:58:23.162Z,101293.31
2023-06-23T20:00:50.899Z,101289.47
2023-06-23T20:03:18.417Z,101285.94
2023-06-23T20:05:45.847Z,101293.50
2023-06-23T20:08:13.235Z,101288.97
2023-06-23T20:10:40.844Z,101291.66
2023-06-23T20:13:08.737Z,101288.75
2023-06-23T20:15:36.463Z,101286.00
2023-06-23T20:18:04.040Z,101270.41
2023-06-23T20:20:31.679Z,101288.41
2023-06-23T20:22:59.426Z,101293.75
2023-06-23T20:25:27.057Z,101298.38
2023-06-23T20:27:54.273Z,101299.22
2023-06-23T20:30:21.615Z,101293.75
2023-06-23T20:32:48.897Z,101297.28
2023-06-23T20:35:16.505Z,101300.09
2023-06-23T20:37:44.015Z,101303.50
2023-06-23T20:40:14.677Z,101300.72
2023-06-23T20:42:42.172Z,101298.56
2023-06-23T20:45:15.294Z,101305.22
2023-06-23T20:47:45.653Z,101296.44
2023-06-23T20:50:13.428Z,101294.75
2023-06-23T20:52:41.217Z,101300.09
2023-06-23T20:55:09.094Z,101293.88
2023-06-23T20:57:37.616Z,101298.38
2023-06-23T21:00:05.919Z,101282.81
2023-06-23T21:02:33.279Z,101291.78
2023-06-23T21:05:01.021Z,101299.09
2023-06-23T21:07:29.044Z,101298.28
2023-06-23T21:09:56.463Z,101303.50
2023-06-23T21:12:25.151Z,101301.78
2023-06-23T21:15:04.648Z,101305.22
2023-06-23T21:17:34.443Z,101305.22
2023-06-23T21:20:02.052Z,101300.97
2023-06-23T21:22:29.817Z,101291.16
2023-06-23T21:24:57.084Z,101298.56
2023-06-23T21:27:25.780Z,101297.13
2023-06-23T21:29:53.506Z,101300.31
2023-06-23T21:32:20.831Z,101297.75
2023-06-23T21:34:48.333Z,101292.50
2023-06-23T21:37:16.895Z,101296.19
2023-06-23T21:39:44.333Z,101281.19
2023-06-23T21:42:11.624Z,101268.75
2023-06-23T21:44:38.997Z,101275.69
2023-06-23T21:47:06.807Z,101285.84
2023-06-23T21:49:34.274Z,101276.31
2023-06-23T21:52:01.754Z,101284.59
2023-06-23T21:54:29.071Z,101275.94
2023-06-23T21:56:56.291Z,101276.06
2023-06-23T21:59:23.765Z,101270.06
2023-06-23T22:01:51.629Z,101269.34
2023-06-23T22:04:18.780Z,101250.34
2023-06-23T22:06:46.242Z,101262.41
2023-06-23T22:09:13.571Z,101255.44
2023-06-23T22:11:40.747Z,101256.50
2023-06-23T22:14:07.905Z,101256.50
2023-06-23T22:16:35.322Z,101250.44
2023-06-23T22:19:02.537Z,101256.75
2023-06-23T22:21:29.981Z,101252.38
2023-06-23T22:23:57.327Z,101245.31
2023-06-23T22:26:24.607Z,101248.19
2023-06-23T22:28:51.754Z,101250.88
2023-06-23T22:31:19.079Z,101249.28
2023-06-23T22:33:46.618Z,101245.78
2023-06-23T22:36:13.979Z,101249.41
2023-06-23T22:38:41.073Z,101246.00
2023-06-23T22:41:08.555Z,101246.84
2023-06-23T22:43:35.784Z,101245.13
2023-06-23T22:46:03.172Z,101241.72
2023-06-23T22:48:30.322Z,101244.50
2023-06-23T22:50:57.530Z,101248.16
2023-06-23T22:53:24.658Z,101236.19
2023-06-23T22:55:52.221Z,101249.09
2023-06-23T22:58:19.398Z,101247.38
2023-06-23T23:00:46.452Z,101244.72
2023-06-23T23:03:13.849Z,101249.22
2023-06-23T23:05:42.314Z,101241.31
2023-06-23T23:08:09.444Z,101244.97
2023-06-23T23:10:37.396Z,101243.25
2023-06-23T23:13:05.591Z,101242.38
2023-06-23T23:15:32.770Z,101242.50
2023-06-23T23:17:59.868Z,101237.16
2023-06-23T23:20:27.003Z,101240.78
2023-06-23T23:22:54.311Z,101241.75
2023-06-23T23:25:22.408Z,101229.72
2023-06-23T23:27:52.644Z,101229.38
2023-06-23T23:30:20.056Z,101229.38
2023-06-23T23:32:50.562Z,101226.78
2023-06-23T23:35:18.128Z,101218.78
2023-06-23T23:37:46.019Z,101217.97
2023-06-23T23:40:14.420Z,101227.78
2023-06-23T23:42:45.873Z,101234.06
2023-06-23T23:45:13.951Z,101226.19
2023-06-23T23:47:42.604Z,101228.84
2023-06-23T23:50:10.271Z,101230.66
2023-06-23T23:52:37.615Z,101241.44
2023-06-23T23:55:05.078Z,101227.13
2023-06-23T23:57:32.419Z,101235.28
2023-06-23T23:59:59.480Z,101230.88
